sensor_id;sensor_type;location;lat;lon;timestamp;P1;durP1;ratioP1;P2;durP2;ratioP2
5819;SDS011;2936;47.348;9.640;2023-04-03T00:00:53;2.30;;;2.20;;
5819;SDS011;2936;47.348;9.640;2023-04-03T00:03:22;2.70;;;2.60;;
5819;SDS011;2936;47.348;9.640;2023-04-03T00:05:49;2.60;;;2.50;;
5819;SDS011;2936;47.348;9.640;2023-04-03T00:08:17;2.53;;;2.42;;
5819;SDS011;2936;47.348;9.640;2023-04-03T00:10:44;2.40;;;2.30;;
5819;SDS011;2936;47.348;9.640;2023-04-03T00:13:12;3.00;;;2.90;;
5819;SDS011;2936;47.348;9.640;2023-04-03T00:15:40;2.85;;;2.75;;
5819;SDS011;2936;47.348;9.640;2023-04-03T00:18:08;2.70;;;2.60;;
5819;SDS011;2936;47.348;9.640;2023-04-03T00:20:37;2.60;;;2.50;;
5819;SDS011;2936;47.348;9.640;2023-04-03T00:23:04;2.67;;;2.58;;
5819;SDS011;2936;47.348;9.640;2023-04-03T00:25:32;3.08;;;2.90;;
5819;SDS011;2936;47.348;9.640;2023-04-03T00:27:59;2.90;;;2.80;;
5819;SDS011;2936;47.348;9.640;2023-04-03T00:30:27;2.80;;;2.70;;
5819;SDS011;2936;47.348;9.640;2023-04-03T00:32:54;3.00;;;2.90;;
5819;SDS011;2936;47.348;9.640;2023-04-03T00:35:22;2.53;;;2.42;;
5819;SDS011;2936;47.348;9.640;2023-04-03T00:37:52;3.08;;;2.97;;
5819;SDS011;2936;47.348;9.640;2023-04-03T00:40:20;3.25;;;3.15;;
5819;SDS011;2936;47.348;9.640;2023-04-03T00:42:48;2.80;;;2.70;;
5819;SDS011;2936;47.348;9.640;2023-04-03T00:45:32;3.50;;;3.30;;
5819;SDS011;2936;47.348;9.640;2023-04-03T00:48:01;2.90;;;2.80;;
5819;SDS011;2936;47.348;9.640;2023-04-03T00:50:30;3.00;;;2.90;;
5819;SDS011;2936;47.348;9.640;2023-04-03T00:53:00;2.60;;;2.50;;
5819;SDS011;2936;47.348;9.640;2023-04-03T00:55:29;2.67;;;2.58;;
5819;SDS011;2936;47.348;9.640;2023-04-03T00:57:56;2.97;;;2.88;;
5819;SDS011;2936;47.348;9.640;2023-04-03T01:00:24;3.00;;;2.90;;
5819;SDS011;2936;47.348;9.640;2023-04-03T01:02:52;3.25;;;3.15;;
5819;SDS011;2936;47.348;9.640;2023-04-03T01:05:20;3.38;;;3.28;;
5819;SDS011;2936;47.348;9.640;2023-04-03T01:07:48;3.03;;;2.92;;
5819;SDS011;2936;47.348;9.640;2023-04-03T01:10:18;3.28;;;3.17;;
5819;SDS011;2936;47.348;9.640;2023-04-03T01:12:46;4.00;;;3.80;;
5819;SDS011;2936;47.348;9.640;2023-04-03T01:15:15;3.30;;;3.20;;
5819;SDS011;2936;47.348;9.640;2023-04-03T01:17:43;3.90;;;3.70;;
5819;SDS011;2936;47.348;9.640;2023-04-03T01:20:23;3.65;;;3.45;;
5819;SDS011;2936;47.348;9.640;2023-04-03T01:22:57;3.70;;;3.50;;
5819;SDS011;2936;47.348;9.640;2023-04-03T01:25:27;3.60;;;3.35;;
5819;SDS011;2936;47.348;9.640;2023-04-03T01:27:55;3.30;;;3.20;;
5819;SDS011;2936;47.348;9.640;2023-04-03T01:30:23;3.90;;;3.70;;
5819;SDS011;2936;47.348;9.640;2023-04-03T01:32:53;3.20;;;3.10;;
5819;SDS011;2936;47.348;9.640;2023-04-03T01:35:21;3.90;;;3.70;;
5819;SDS011;2936;47.348;9.640;2023-04-03T01:37:48;3.92;;;3.72;;
5819;SDS011;2936;47.348;9.640;2023-04-03T01:40:16;4.38;;;4.18;;
5819;SDS011;2936;47.348;9.640;2023-04-03T01:42:43;4.85;;;4.55;;
5819;SDS011;2936;47.348;9.640;2023-04-03T01:45:11;3.90;;;3.67;;
5819;SDS011;2936;47.348;9.640;2023-04-03T01:47:38;4.30;;;4.10;;
5819;SDS011;2936;47.348;9.640;2023-04-03T01:50:08;3.63;;;3.53;;
5819;SDS011;2936;47.348;9.640;2023-04-03T01:52:35;4.18;;;3.92;;
5819;SDS011;2936;47.348;9.640;2023-04-03T01:55:03;4.53;;;4.32;;
5819;SDS011;2936;47.348;9.640;2023-04-03T01:57:30;4.22;;;3.92;;
5819;SDS011;2936;47.348;9.640;2023-04-03T01:59:58;4.32;;;4.13;;
5819;SDS011;2936;47.348;9.640;2023-04-03T02:02:25;4.53;;;4.32;;
5819;SDS011;2936;47.348;9.640;2023-04-03T02:04:53;5.10;;;4.80;;
5819;SDS011;2936;47.348;9.640;2023-04-03T02:07:22;5.60;;;5.30;;
5819;SDS011;2936;47.348;9.640;2023-04-03T02:09:50;5.05;;;4.82;;
5819;SDS011;2936;47.348;9.640;2023-04-03T02:12:17;5.88;;;5.47;;
5819;SDS011;2936;47.348;9.640;2023-04-03T02:14:45;5.57;;;5.20;;
5819;SDS011;2936;47.348;9.640;2023-04-03T02:17:12;6.00;;;5.60;;
5819;SDS011;2936;47.348;9.640;2023-04-03T02:19:40;6.25;;;5.65;;
5819;SDS011;2936;47.348;9.640;2023-04-03T02:22:08;6.60;;;6.10;;
5819;SDS011;2936;47.348;9.640;2023-04-03T02:24:36;6.78;;;6.28;;
5819;SDS011;2936;47.348;9.640;2023-04-03T02:27:05;7.50;;;6.65;;
5819;SDS011;2936;47.348;9.640;2023-04-03T02:29:33;7.90;;;7.10;;
5819;SDS011;2936;47.348;9.640;2023-04-03T02:32:00;6.32;;;5.85;;
5819;SDS011;2936;47.348;9.640;2023-04-03T02:34:28;7.63;;;6.93;;
5819;SDS011;2936;47.348;9.640;2023-04-03T02:36:55;7.57;;;6.70;;
5819;SDS011;2936;47.348;9.640;2023-04-03T02:39:23;7.40;;;6.70;;
5819;SDS011;2936;47.348;9.640;2023-04-03T02:41:52;7.28;;;6.57;;
5819;SDS011;2936;47.348;9.640;2023-04-03T02:44:20;8.35;;;7.45;;
5819;SDS011;2936;47.348;9.640;2023-04-03T02:46:48;6.97;;;6.47;;
5819;SDS011;2936;47.348;9.640;2023-04-03T02:49:16;7.47;;;6.97;;
5819;SDS011;2936;47.348;9.640;2023-04-03T02:51:43;7.57;;;6.88;;
5819;SDS011;2936;47.348;9.640;2023-04-03T02:54:11;8.13;;;7.43;;
5819;SDS011;2936;47.348;9.640;2023-04-03T02:56:38;7.65;;;6.97;;
5819;SDS011;2936;47.348;9.640;2023-04-03T02:59:07;8.05;;;7.35;;
5819;SDS011;2936;47.348;9.640;2023-04-03T03:01:35;8.45;;;7.65;;
5819;SDS011;2936;47.348;9.640;2023-04-03T03:04:02;8.48;;;7.68;;
5819;SDS011;2936;47.348;9.640;2023-04-03T03:06:30;9.10;;;7.75;;
5819;SDS011;2936;47.348;9.640;2023-04-03T03:08:57;9.20;;;8.32;;
5819;SDS011;2936;47.348;9.640;2023-04-03T03:11:25;8.50;;;7.70;;
5819;SDS011;2936;47.348;9.640;2023-04-03T03:13:53;8.20;;;7.40;;
5819;SDS011;2936;47.348;9.640;2023-04-03T03:16:22;8.57;;;7.88;;
5819;SDS011;2936;47.348;9.640;2023-04-03T03:18:49;8.48;;;7.75;;
5819;SDS011;2936;47.348;9.640;2023-04-03T03:21:17;7.60;;;7.00;;
5819;SDS011;2936;47.348;9.640;2023-04-03T03:23:44;9.40;;;8.45;;
5819;SDS011;2936;47.348;9.640;2023-04-03T03:26:12;9.50;;;8.60;;
5819;SDS011;2936;47.348;9.640;2023-04-03T03:28:39;9.45;;;8.43;;
5819;SDS011;2936;47.348;9.640;2023-04-03T03:31:10;9.32;;;8.43;;
5819;SDS011;2936;47.348;9.640;2023-04-03T03:33:39;9.57;;;8.38;;
5819;SDS011;2936;47.348;9.640;2023-04-03T03:36:06;9.43;;;8.45;;
5819;SDS011;2936;47.348;9.640;2023-04-03T03:38:34;9.77;;;8.82;;
5819;SDS011;2936;47.348;9.640;2023-04-03T03:41:02;9.90;;;8.93;;
5819;SDS011;2936;47.348;9.640;2023-04-03T03:43:29;9.73;;;8.80;;
5819;SDS011;2936;47.348;9.640;2023-04-03T03:45:57;11.57;;;9.00;;
5819;SDS011;2936;47.348;9.640;2023-04-03T03:48:24;9.05;;;8.18;;
5819;SDS011;2936;47.348;9.640;2023-04-03T03:50:53;12.57;;;9.93;;
5819;SDS011;2936;47.348;9.640;2023-04-03T03:53:21;10.10;;;9.07;;
5819;SDS011;2936;47.348;9.640;2023-04-03T03:55:48;10.35;;;9.20;;
5819;SDS011;2936;47.348;9.640;2023-04-03T03:58:16;13.90;;;8.85;;
5819;SDS011;2936;47.348;9.640;2023-04-03T04:00:43;9.90;;;8.90;;
5819;SDS011;2936;47.348;9.640;2023-04-03T04:03:11;14.02;;;10.50;;
5819;SDS011;2936;47.348;9.640;2023-04-03T04:05:38;11.55;;;9.98;;
5819;SDS011;2936;47.348;9.640;2023-04-03T04:08:07;10.55;;;9.45;;
5819;SDS011;2936;47.348;9.640;2023-04-03T04:10:35;12.27;;;9.05;;
5819;SDS011;2936;47.348;9.640;2023-04-03T04:13:02;10.88;;;9.10;;
5819;SDS011;2936;47.348;9.640;2023-04-03T04:15:30;12.55;;;9.60;;
5819;SDS011;2936;47.348;9.640;2023-04-03T04:17:57;11.50;;;9.48;;
5819;SDS011;2936;47.348;9.640;2023-04-03T04:20:25;10.73;;;8.60;;
5819;SDS011;2936;47.348;9.640;2023-04-03T04:22:52;8.43;;;7.63;;
5819;SDS011;2936;47.348;9.640;2023-04-03T04:25:21;9.60;;;8.60;;
5819;SDS011;2936;47.348;9.640;2023-04-03T04:27:49;11.68;;;9.00;;
5819;SDS011;2936;47.348;9.640;2023-04-03T04:30:16;11.95;;;9.57;;
5819;SDS011;2936;47.348;9.640;2023-04-03T04:32:44;10.77;;;9.43;;
5819;SDS011;2936;47.348;9.640;2023-04-03T04:35:11;26.58;;;11.90;;
5819;SDS011;2936;47.348;9.640;2023-04-03T04:37:39;12.25;;;10.27;;
5819;SDS011;2936;47.348;9.640;2023-04-03T04:40:07;11.45;;;9.43;;
5819;SDS011;2936;47.348;9.640;2023-04-03T04:42:36;11.13;;;9.80;;
5819;SDS011;2936;47.348;9.640;2023-04-03T04:45:04;24.00;;;10.80;;
5819;SDS011;2936;47.348;9.640;2023-04-03T04:47:31;15.30;;;10.55;;
5819;SDS011;2936;47.348;9.640;2023-04-03T04:49:59;11.50;;;10.32;;
5819;SDS011;2936;47.348;9.640;2023-04-03T04:52:26;12.68;;;10.95;;
5819;SDS011;2936;47.348;9.640;2023-04-03T04:54:54;11.50;;;10.10;;
5819;SDS011;2936;47.348;9.640;2023-04-03T04:57:21;13.10;;;10.68;;
5819;SDS011;2936;47.348;9.640;2023-04-03T04:59:50;11.18;;;10.07;;
5819;SDS011;2936;47.348;9.640;2023-04-03T05:02:17;13.98;;;11.30;;
5819;SDS011;2936;47.348;9.640;2023-04-03T05:04:45;13.00;;;10.07;;
5819;SDS011;2936;47.348;9.640;2023-04-03T05:07:15;12.60;;;10.75;;
5819;SDS011;2936;47.348;9.640;2023-04-03T05:09:42;14.38;;;11.40;;
5819;SDS011;2936;47.348;9.640;2023-04-03T05:12:10;11.27;;;10.07;;
5819;SDS011;2936;47.348;9.640;2023-04-03T05:14:37;12.88;;;11.45;;
5819;SDS011;2936;47.348;9.640;2023-04-03T05:17:06;11.25;;;9.50;;
5819;SDS011;2936;47.348;9.640;2023-04-03T05:19:34;19.15;;;10.93;;
5819;SDS011;2936;47.348;9.640;2023-04-03T05:22:01;12.23;;;10.52;;
5819;SDS011;2936;47.348;9.640;2023-04-03T05:24:28;13.82;;;11.73;;
5819;SDS011;2936;47.348;9.640;2023-04-03T05:26:56;12.20;;;10.90;;
5819;SDS011;2936;47.348;9.640;2023-04-03T05:29:24;13.30;;;10.40;;
5819;SDS011;2936;47.348;9.640;2023-04-03T05:31:52;17.65;;;11.55;;
5819;SDS011;2936;47.348;9.640;2023-04-03T05:34:21;14.52;;;11.75;;
5819;SDS011;2936;47.348;9.640;2023-04-03T05:36:48;16.65;;;11.00;;
5819;SDS011;2936;47.348;9.640;2023-04-03T05:39:16;12.50;;;10.95;;
5819;SDS011;2936;47.348;9.640;2023-04-03T05:41:43;14.25;;;12.27;;
5819;SDS011;2936;47.348;9.640;2023-04-03T05:44:11;13.80;;;10.95;;
5819;SDS011;2936;47.348;9.640;2023-04-03T05:46:38;15.20;;;11.35;;
5819;SDS011;2936;47.348;9.640;2023-04-03T05:49:08;14.93;;;12.32;;
5819;SDS011;2936;47.348;9.640;2023-04-03T05:51:37;12.45;;;11.15;;
5819;SDS011;2936;47.348;9.640;2023-04-03T05:54:06;12.35;;;11.15;;
5819;SDS011;2936;47.348;9.640;2023-04-03T05:56:34;16.05;;;12.30;;
5819;SDS011;2936;47.348;9.640;2023-04-03T05:59:01;15.70;;;11.75;;
5819;SDS011;2936;47.348;9.640;2023-04-03T06:01:29;12.68;;;10.85;;
5819;SDS011;2936;47.348;9.640;2023-04-03T06:03:56;15.65;;;12.25;;
5819;SDS011;2936;47.348;9.640;2023-04-03T06:06:24;17.25;;;12.15;;
5819;SDS011;2936;47.348;9.640;2023-04-03T06:08:53;15.30;;;11.35;;
5819;SDS011;2936;47.348;9.640;2023-04-03T06:11:20;16.55;;;12.25;;
5819;SDS011;2936;47.348;9.640;2023-04-03T06:13:48;16.83;;;13.65;;
5819;SDS011;2936;47.348;9.640;2023-04-03T06:16:15;17.75;;;13.98;;
5819;SDS011;2936;47.348;9.640;2023-04-03T06:18:44;14.25;;;12.30;;
5819;SDS011;2936;47.348;9.640;2023-04-03T06:21:12;14.90;;;12.32;;
5819;SDS011;2936;47.348;9.640;2023-04-03T06:23:40;18.92;;;12.60;;
5819;SDS011;2936;47.348;9.640;2023-04-03T06:26:09;17.23;;;13.70;;
5819;SDS011;2936;47.348;9.640;2023-04-03T06:28:37;15.15;;;12.10;;
5819;SDS011;2936;47.348;9.640;2023-04-03T06:31:04;15.90;;;12.13;;
5819;SDS011;2936;47.348;9.640;2023-04-03T06:33:32;15.60;;;12.63;;
5819;SDS011;2936;47.348;9.640;2023-04-03T06:35:59;18.30;;;13.52;;
5819;SDS011;2936;47.348;9.640;2023-04-03T06:38:27;19.55;;;13.65;;
5819;SDS011;2936;47.348;9.640;2023-04-03T06:40:55;18.13;;;13.25;;
5819;SDS011;2936;47.348;9.640;2023-04-03T06:43:24;23.77;;;13.95;;
5819;SDS011;2936;47.348;9.640;2023-04-03T06:45:51;17.25;;;12.40;;
5819;SDS011;2936;47.348;9.640;2023-04-03T06:48:19;19.95;;;13.38;;
5819;SDS011;2936;47.348;9.640;2023-04-03T06:50:47;16.17;;;13.82;;
5819;SDS011;2936;47.348;9.640;2023-04-03T06:53:14;18.73;;;13.13;;
5819;SDS011;2936;47.348;9.640;2023-04-03T06:55:42;18.05;;;13.07;;
5819;SDS011;2936;47.348;9.640;2023-04-03T06:58:10;14.50;;;12.85;;
5819;SDS011;2936;47.348;9.640;2023-04-03T07:00:39;17.42;;;13.77;;
5819;SDS011;2936;47.348;9.640;2023-04-03T07:03:06;14.68;;;12.10;;
5819;SDS011;2936;47.348;9.640;2023-04-03T07:05:34;16.85;;;13.00;;
5819;SDS011;2936;47.348;9.640;2023-04-03T07:08:01;18.08;;;13.65;;
5819;SDS011;2936;47.348;9.640;2023-04-03T07:10:28;20.67;;;13.20;;
5819;SDS011;2936;47.348;9.640;2023-04-03T07:12:56;16.67;;;12.73;;
5819;SDS011;2936;47.348;9.640;2023-04-03T07:15:24;17.95;;;12.73;;
5819;SDS011;2936;47.348;9.640;2023-04-03T07:17:53;17.08;;;13.65;;
5819;SDS011;2936;47.348;9.640;2023-04-03T07:20:20;17.40;;;12.98;;
5819;SDS011;2936;47.348;9.640;2023-04-03T07:22:48;16.10;;;12.85;;
5819;SDS011;2936;47.348;9.640;2023-04-03T07:25:16;17.60;;;12.80;;
5819;SDS011;2936;47.348;9.640;2023-04-03T07:27:43;16.63;;;13.05;;
5819;SDS011;2936;47.348;9.640;2023-04-03T07:30:11;15.93;;;12.07;;
5819;SDS011;2936;47.348;9.640;2023-04-03T07:32:39;20.10;;;13.68;;
5819;SDS011;2936;47.348;9.640;2023-04-03T07:35:08;16.70;;;12.25;;
5819;SDS011;2936;47.348;9.640;2023-04-03T07:37:36;16.00;;;12.73;;
5819;SDS011;2936;47.348;9.640;2023-04-03T07:40:04;13.73;;;12.20;;
5819;SDS011;2936;47.348;9.640;2023-04-03T07:42:32;11.77;;;10.57;;
5819;SDS011;2936;47.348;9.640;2023-04-03T07:45:00;13.50;;;11.45;;
5819;SDS011;2936;47.348;9.640;2023-04-03T07:47:27;13.25;;;11.00;;
5819;SDS011;2936;47.348;9.640;2023-04-03T07:49:55;20.45;;;14.65;;
5819;SDS011;2936;47.348;9.640;2023-04-03T07:52:25;32.63;;;20.23;;
5819;SDS011;2936;47.348;9.640;2023-04-03T07:54:53;28.02;;;18.02;;
5819;SDS011;2936;47.348;9.640;2023-04-03T07:57:20;21.85;;;15.35;;
5819;SDS011;2936;47.348;9.640;2023-04-03T07:59:48;30.55;;;14.82;;
5819;SDS011;2936;47.348;9.640;2023-04-03T08:02:15;26.98;;;16.20;;
5819;SDS011;2936;47.348;9.640;2023-04-03T08:04:43;18.55;;;14.32;;
5819;SDS011;2936;47.348;9.640;2023-04-03T08:07:10;16.85;;;13.27;;
5819;SDS011;2936;47.348;9.640;2023-04-03T08:09:39;17.45;;;13.20;;
5819;SDS011;2936;47.348;9.640;2023-04-03T08:12:07;17.38;;;13.70;;
5819;SDS011;2936;47.348;9.640;2023-04-03T08:14:37;15.38;;;13.55;;
5819;SDS011;2936;47.348;9.640;2023-04-03T08:17:05;18.55;;;14.60;;
5819;SDS011;2936;47.348;9.640;2023-04-03T08:19:35;18.95;;;14.88;;
5819;SDS011;2936;47.348;9.640;2023-04-03T08:22:03;15.27;;;12.48;;
5819;SDS011;2936;47.348;9.640;2023-04-03T08:24:31;17.00;;;13.23;;
5819;SDS011;2936;47.348;9.640;2023-04-03T08:27:01;17.30;;;12.27;;
5819;SDS011;2936;47.348;9.640;2023-04-03T08:29:28;15.80;;;12.98;;
5819;SDS011;2936;47.348;9.640;2023-04-03T08:31:56;20.23;;;12.80;;
5819;SDS011;2936;47.348;9.640;2023-04-03T08:34:23;24.77;;;12.90;;
5819;SDS011;2936;47.348;9.640;2023-04-03T08:36:51;21.33;;;11.07;;
5819;SDS011;2936;47.348;9.640;2023-04-03T08:39:18;15.65;;;11.50;;
5819;SDS011;2936;47.348;9.640;2023-04-03T08:41:46;13.75;;;11.25;;
5819;SDS011;2936;47.348;9.640;2023-04-03T08:44:17;16.65;;;12.20;;
5819;SDS011;2936;47.348;9.640;2023-04-03T08:46:51;26.17;;;12.77;;
5819;SDS011;2936;47.348;9.640;2023-04-03T08:49:24;18.15;;;12.80;;
5819;SDS011;2936;47.348;9.640;2023-04-03T08:51:54;16.60;;;12.18;;
5819;SDS011;2936;47.348;9.640;2023-04-03T08:54:25;15.75;;;11.77;;
5819;SDS011;2936;47.348;9.640;2023-04-03T08:56:55;20.80;;;12.38;;
5819;SDS011;2936;47.348;9.640;2023-04-03T08:59:26;14.50;;;12.90;;
5819;SDS011;2936;47.348;9.640;2023-04-03T09:01:56;19.38;;;12.48;;
5819;SDS011;2936;47.348;9.640;2023-04-03T09:04:25;15.68;;;12.18;;
5819;SDS011;2936;47.348;9.640;2023-04-03T09:06:54;19.50;;;11.55;;
5819;SDS011;2936;47.348;9.640;2023-04-03T09:09:26;15.13;;;12.15;;
5819;SDS011;2936;47.348;9.640;2023-04-03T09:12:00;20.23;;;12.00;;
5819;SDS011;2936;47.348;9.640;2023-04-03T09:14:38;20.33;;;12.30;;
5819;SDS011;2936;47.348;9.640;2023-04-03T09:17:10;23.70;;;11.13;;
5819;SDS011;2936;47.348;9.640;2023-04-03T09:19:41;15.05;;;10.40;;
5819;SDS011;2936;47.348;9.640;2023-04-03T09:22:16;18.73;;;10.45;;
5819;SDS011;2936;47.348;9.640;2023-04-03T09:24:44;13.27;;;10.52;;
5819;SDS011;2936;47.348;9.640;2023-04-03T09:27:12;11.88;;;9.27;;
5819;SDS011;2936;47.348;9.640;2023-04-03T09:29:42;14.38;;;9.93;;
5819;SDS011;2936;47.348;9.640;2023-04-03T09:32:18;14.27;;;11.23;;
5819;SDS011;2936;47.348;9.640;2023-04-03T09:34:46;17.27;;;10.82;;
5819;SDS011;2936;47.348;9.640;2023-04-03T09:37:33;15.95;;;12.50;;
5819;SDS011;2936;47.348;9.640;2023-04-03T09:40:01;17.85;;;11.82;;
5819;SDS011;2936;47.348;9.640;2023-04-03T09:42:30;10.95;;;9.10;;
5819;SDS011;2936;47.348;9.640;2023-04-03T09:44:59;13.50;;;9.80;;
5819;SDS011;2936;47.348;9.640;2023-04-03T09:47:28;17.40;;;10.05;;
5819;SDS011;2936;47.348;9.640;2023-04-03T09:52:54;11.32;;;7.82;;
5819;SDS011;2936;47.348;9.640;2023-04-03T09:55:22;10.77;;;8.68;;
5819;SDS011;2936;47.348;9.640;2023-04-03T09:57:52;11.32;;;9.02;;
5819;SDS011;2936;47.348;9.640;2023-04-03T10:00:23;16.70;;;8.52;;
5819;SDS011;2936;47.348;9.640;2023-04-03T10:02:51;10.50;;;9.43;;
5819;SDS011;2936;47.348;9.640;2023-04-03T10:05:25;23.23;;;9.68;;
5819;SDS011;2936;47.348;9.640;2023-04-03T10:08:06;14.25;;;8.90;;
5819;SDS011;2936;47.348;9.640;2023-04-03T10:10:35;12.55;;;8.82;;
5819;SDS011;2936;47.348;9.640;2023-04-03T10:13:04;14.98;;;7.65;;
5819;SDS011;2936;47.348;9.640;2023-04-03T10:15:36;13.05;;;8.02;;
5819;SDS011;2936;47.348;9.640;2023-04-03T10:18:09;17.25;;;7.85;;
5819;SDS011;2936;47.348;9.640;2023-04-03T10:20:48;8.05;;;6.55;;
5819;SDS011;2936;47.348;9.640;2023-04-03T10:23:17;7.78;;;7.10;;
5819;SDS011;2936;47.348;9.640;2023-04-03T10:25:48;8.63;;;7.72;;
5819;SDS011;2936;47.348;9.640;2023-04-03T10:28:20;8.80;;;7.28;;
5819;SDS011;2936;47.348;9.640;2023-04-03T10:30:53;8.43;;;7.63;;
5819;SDS011;2936;47.348;9.640;2023-04-03T10:33:27;12.30;;;9.45;;
5819;SDS011;2936;47.348;9.640;2023-04-03T10:36:02;12.88;;;10.77;;
5819;SDS011;2936;47.348;9.640;2023-04-03T10:38:39;10.00;;;9.00;;
5819;SDS011;2936;47.348;9.640;2023-04-03T10:41:11;10.98;;;8.88;;
5819;SDS011;2936;47.348;9.640;2023-04-03T10:43:43;12.25;;;9.30;;
5819;SDS011;2936;47.348;9.640;2023-04-03T10:46:14;13.00;;;8.85;;
5819;SDS011;2936;47.348;9.640;2023-04-03T10:48:47;9.77;;;7.80;;
5819;SDS011;2936;47.348;9.640;2023-04-03T10:51:20;8.70;;;7.90;;
5819;SDS011;2936;47.348;9.640;2023-04-03T10:53:51;11.35;;;8.23;;
5819;SDS011;2936;47.348;9.640;2023-04-03T10:56:21;10.85;;;7.40;;
5819;SDS011;2936;47.348;9.640;2023-04-03T10:58:53;7.90;;;7.13;;
5819;SDS011;2936;47.348;9.640;2023-04-03T11:01:24;10.15;;;7.03;;
5819;SDS011;2936;47.348;9.640;2023-04-03T11:03:54;7.22;;;6.47;;
5819;SDS011;2936;47.348;9.640;2023-04-03T11:06:24;7.18;;;6.60;;
5819;SDS011;2936;47.348;9.640;2023-04-03T11:08:53;8.93;;;8.07;;
5819;SDS011;2936;47.348;9.640;2023-04-03T11:11:24;8.07;;;7.38;;
5819;SDS011;2936;47.348;9.640;2023-04-03T11:13:54;8.90;;;7.25;;
5819;SDS011;2936;47.348;9.640;2023-04-03T11:16:26;8.90;;;7.10;;
5819;SDS011;2936;47.348;9.640;2023-04-03T11:18:54;8.20;;;7.45;;
5819;SDS011;2936;47.348;9.640;2023-04-03T11:21:25;8.43;;;7.45;;
5819;SDS011;2936;47.348;9.640;2023-04-03T11:23:56;8.32;;;7.63;;
5819;SDS011;2936;47.348;9.640;2023-04-03T11:26:26;14.07;;;8.10;;
5819;SDS011;2936;47.348;9.640;2023-04-03T11:28:56;6.80;;;6.20;;
5819;SDS011;2936;47.348;9.640;2023-04-03T11:31:49;8.70;;;7.90;;
5819;SDS011;2936;47.348;9.640;2023-04-03T11:34:26;9.38;;;7.07;;
5819;SDS011;2936;47.348;9.640;2023-04-03T11:36:59;12.05;;;8.52;;
5819;SDS011;2936;47.348;9.640;2023-04-03T11:39:28;10.60;;;9.35;;
5819;SDS011;2936;47.348;9.640;2023-04-03T11:42:12;11.40;;;7.20;;
5819;SDS011;2936;47.348;9.640;2023-04-03T11:45:07;8.85;;;7.68;;
5819;SDS011;2936;47.348;9.640;2023-04-03T11:47:45;8.55;;;7.78;;
5819;SDS011;2936;47.348;9.640;2023-04-03T11:52:56;11.18;;;8.10;;
5819;SDS011;2936;47.348;9.640;2023-04-03T11:58:12;10.13;;;7.55;;
5819;SDS011;2936;47.348;9.640;2023-04-03T12:00:49;14.57;;;8.00;;
5819;SDS011;2936;47.348;9.640;2023-04-03T12:03:32;11.38;;;7.90;;
5819;SDS011;2936;47.348;9.640;2023-04-03T12:08:43;8.20;;;7.40;;
5819;SDS011;2936;47.348;9.640;2023-04-03T12:11:14;17.25;;;8.25;;
5819;SDS011;2936;47.348;9.640;2023-04-03T12:16:29;8.85;;;7.40;;
5819;SDS011;2936;47.348;9.640;2023-04-03T12:18:59;10.20;;;7.32;;
5819;SDS011;2936;47.348;9.640;2023-04-03T12:27:03;8.80;;;8.05;;
5819;SDS011;2936;47.348;9.640;2023-04-03T12:29:33;9.02;;;8.23;;
5819;SDS011;2936;47.348;9.640;2023-04-03T12:32:10;9.25;;;7.45;;
5819;SDS011;2936;47.348;9.640;2023-04-03T12:34:50;7.32;;;6.72;;
5819;SDS011;2936;47.348;9.640;2023-04-03T12:37:21;7.15;;;6.55;;
5819;SDS011;2936;47.348;9.640;2023-04-03T12:39:55;11.20;;;7.28;;
5819;SDS011;2936;47.348;9.640;2023-04-03T12:42:32;8.48;;;7.55;;
5819;SDS011;2936;47.348;9.640;2023-04-03T12:45:03;13.20;;;7.10;;
5819;SDS011;2936;47.348;9.640;2023-04-03T12:47:37;7.65;;;6.88;;
5819;SDS011;2936;47.348;9.640;2023-04-03T12:50:16;6.93;;;6.43;;
5819;SDS011;2936;47.348;9.640;2023-04-03T12:52:45;11.00;;;6.55;;
5819;SDS011;2936;47.348;9.640;2023-04-03T12:55:15;8.13;;;7.32;;
5819;SDS011;2936;47.348;9.640;2023-04-03T12:57:43;9.02;;;6.82;;
5819;SDS011;2936;47.348;9.640;2023-04-03T13:02:57;5.70;;;5.22;;
5819;SDS011;2936;47.348;9.640;2023-04-03T13:05:26;6.32;;;5.28;;
5819;SDS011;2936;47.348;9.640;2023-04-03T13:07:56;5.63;;;5.10;;
5819;SDS011;2936;47.348;9.640;2023-04-03T13:10:25;6.05;;;5.65;;
5819;SDS011;2936;47.348;9.640;2023-04-03T13:12:54;5.57;;;5.22;;
5819;SDS011;2936;47.348;9.640;2023-04-03T13:15:25;6.55;;;5.95;;
5819;SDS011;2936;47.348;9.640;2023-04-03T13:17:53;5.70;;;5.20;;
5819;SDS011;2936;47.348;9.640;2023-04-03T13:20:23;5.18;;;4.72;;
5819;SDS011;2936;47.348;9.640;2023-04-03T13:23:02;6.00;;;4.93;;
5819;SDS011;2936;47.348;9.640;2023-04-03T13:25:31;6.80;;;6.10;;
5819;SDS011;2936;47.348;9.640;2023-04-03T13:28:00;6.05;;;5.43;;
5819;SDS011;2936;47.348;9.640;2023-04-03T13:30:29;5.07;;;4.68;;
5819;SDS011;2936;47.348;9.640;2023-04-03T13:32:58;5.72;;;5.15;;
5819;SDS011;2936;47.348;9.640;2023-04-03T13:35:35;5.22;;;4.93;;
5819;SDS011;2936;47.348;9.640;2023-04-03T13:38:07;5.00;;;4.45;;
5819;SDS011;2936;47.348;9.640;2023-04-03T13:40:48;4.40;;;4.00;;
5819;SDS011;2936;47.348;9.640;2023-04-03T13:43:19;4.63;;;4.32;;
5819;SDS011;2936;47.348;9.640;2023-04-03T13:45:54;5.22;;;4.78;;
5819;SDS011;2936;47.348;9.640;2023-04-03T13:48:22;4.78;;;4.55;;
5819;SDS011;2936;47.348;9.640;2023-04-03T13:50:51;4.28;;;4.05;;
5819;SDS011;2936;47.348;9.640;2023-04-03T13:53:21;4.90;;;4.40;;
5819;SDS011;2936;47.348;9.640;2023-04-03T13:55:53;5.40;;;4.43;;
5819;SDS011;2936;47.348;9.640;2023-04-03T13:58:23;5.82;;;5.25;;
5819;SDS011;2936;47.348;9.640;2023-04-03T14:00:52;4.80;;;4.50;;
5819;SDS011;2936;47.348;9.640;2023-04-03T14:03:20;6.10;;;5.50;;
5819;SDS011;2936;47.348;9.640;2023-04-03T14:05:49;5.82;;;4.05;;
5819;SDS011;2936;47.348;9.640;2023-04-03T14:08:16;6.88;;;4.00;;
5819;SDS011;2936;47.348;9.640;2023-04-03T14:10:45;7.93;;;4.70;;
5819;SDS011;2936;47.348;9.640;2023-04-03T14:13:15;5.50;;;5.03;;
5819;SDS011;2936;47.348;9.640;2023-04-03T14:15:43;4.75;;;4.53;;
5819;SDS011;2936;47.348;9.640;2023-04-03T14:18:11;4.75;;;4.45;;
5819;SDS011;2936;47.348;9.640;2023-04-03T14:20:38;5.55;;;5.15;;
5819;SDS011;2936;47.348;9.640;2023-04-03T14:23:06;5.38;;;4.97;;
5819;SDS011;2936;47.348;9.640;2023-04-03T14:25:33;5.50;;;5.00;;
5819;SDS011;2936;47.348;9.640;2023-04-03T14:28:07;4.78;;;4.45;;
5819;SDS011;2936;47.348;9.640;2023-04-03T14:30:39;4.38;;;4.13;;
5819;SDS011;2936;47.348;9.640;2023-04-03T14:33:09;5.00;;;4.70;;
5819;SDS011;2936;47.348;9.640;2023-04-03T14:35:39;5.30;;;4.80;;
5819;SDS011;2936;47.348;9.640;2023-04-03T14:38:09;6.05;;;4.80;;
5819;SDS011;2936;47.348;9.640;2023-04-03T14:40:40;5.38;;;5.03;;
5819;SDS011;2936;47.348;9.640;2023-04-03T14:43:10;5.57;;;5.10;;
5819;SDS011;2936;47.348;9.640;2023-04-03T14:45:40;5.65;;;5.15;;
5819;SDS011;2936;47.348;9.640;2023-04-03T14:48:09;6.07;;;5.18;;
5819;SDS011;2936;47.348;9.640;2023-04-03T14:50:37;5.53;;;4.70;;
5819;SDS011;2936;47.348;9.640;2023-04-03T14:53:05;8.45;;;4.65;;
5819;SDS011;2936;47.348;9.640;2023-04-03T14:55:32;5.38;;;4.97;;
5819;SDS011;2936;47.348;9.640;2023-04-03T14:58:01;5.32;;;5.00;;
5819;SDS011;2936;47.348;9.640;2023-04-03T15:00:30;6.18;;;5.47;;
5819;SDS011;2936;47.348;9.640;2023-04-03T15:02:57;5.70;;;5.30;;
5819;SDS011;2936;47.348;9.640;2023-04-03T15:05:25;5.70;;;5.30;;
5819;SDS011;2936;47.348;9.640;2023-04-03T15:07:54;6.85;;;6.18;;
5819;SDS011;2936;47.348;9.640;2023-04-03T15:10:22;4.97;;;4.47;;
5819;SDS011;2936;47.348;9.640;2023-04-03T15:12:50;5.03;;;4.70;;
5819;SDS011;2936;47.348;9.640;2023-04-03T15:15:18;5.07;;;4.63;;
5819;SDS011;2936;47.348;9.640;2023-04-03T15:17:49;5.70;;;5.20;;
5819;SDS011;2936;47.348;9.640;2023-04-03T15:20:19;5.97;;;5.38;;
5819;SDS011;2936;47.348;9.640;2023-04-03T15:22:47;5.43;;;5.05;;
5819;SDS011;2936;47.348;9.640;2023-04-03T15:25:15;6.30;;;5.72;;
5819;SDS011;2936;47.348;9.640;2023-04-03T15:27:43;5.57;;;4.93;;
5819;SDS011;2936;47.348;9.640;2023-04-03T15:30:13;8.82;;;4.88;;
5819;SDS011;2936;47.348;9.640;2023-04-03T15:32:44;6.03;;;5.40;;
5819;SDS011;2936;47.348;9.640;2023-04-03T15:35:14;6.05;;;5.18;;
5819;SDS011;2936;47.348;9.640;2023-04-03T15:37:42;6.68;;;5.53;;
5819;SDS011;2936;47.348;9.640;2023-04-03T15:40:11;6.13;;;5.30;;